aviador You're here:

LFSN Decoded Metar

NANCY ESSEY in FRANCE
Report Time2018-02-20 03:30:00
UTC Time2018-02-20 03:41:44
Flight Rules mvfr MVFR
WindVRB at 01 kt
Visibility7000 m
Phenomena:N/A
Clouds:Broken 028 Hf
Overcast 094 Hf
Expected CloudBase > 400 ft AGL from Temp-Dew spread
Ceiling2,800 ft
Temp-1°C (ISA -15)
Dew Point-2°C (93% RH)
AAT-3.6°C
QNH1015 hPa
Density Alt-1,066 ft
Elevation712 ft
Report Wrong Elevation
Raw Report
LFSN 200330Z AUTO VRB01KT 7000 BKN028 OVC094 M01/M02 Q1015=

Extra information for LFSN:More info

Metar Taf Metar & Taf Last 4 Metars F.Rules Stats Wind Profile Meteogram Temp Stats Airport Information Weather charts Add Link Nearby VenuesMetar ALERT Operation Metar Decoded Social comments